Time;durP1;ratioP1;P1;durP2;ratioP2;P2;SDS_P1;SDS_P2;PMS_P1;PMS_P2;Temp;Humidity;BMP_temperature;BMP_pressure;BME280_temperature;BME280_humidity;BME280_pressure;Samples;Min_cycle;Max_cycle;Signal;HPM_P1;HPM_P2
2021/09/05 00:00:38;;;;;;;5.45;2.03;;;;;;;9.94;68.83;102691.75;6241286;28;20185;-73
2021/09/05 00:03:42;;;;;;;2.97;2.30;;;;;;;9.86;68.80;102692.59;6241625;28;20194;-73
2021/09/05 00:06:46;;;;;;;4.57;1.90;;;;;;;9.89;69.22;102694.16;6241521;28;20213;-73
2021/09/05 00:09:51;;;;;;;5.53;2.20;;;;;;;9.76;69.64;102686.47;6242145;28;20292;-73
2021/09/05 00:12:56;;;;;;;6.43;2.05;;;;;;;9.67;70.05;102698.38;6241538;28;20251;-77
2021/09/05 00:16:01;;;;;;;3.65;2.45;;;;;;;9.72;69.44;102695.13;6242305;28;20217;-72
2021/09/05 00:19:05;;;;;;;2.88;2.13;;;;;;;9.70;69.40;102697.19;6241229;28;20185;-73
2021/09/05 00:22:11;;;;;;;7.40;2.55;;;;;;;9.60;69.64;102691.88;6241875;28;20186;-73
2021/09/05 00:25:16;;;;;;;2.10;1.90;;;;;;;9.63;69.97;102691.53;6241736;28;20296;-73
2021/09/05 00:28:22;;;;;;;2.53;2.33;;;;;;;9.62;69.82;102700.75;6241585;28;20209;-73
2021/09/05 00:31:26;;;;;;;4.32;2.47;;;;;;;9.48;70.56;102693.19;6241637;28;20186;-73
2021/09/05 00:34:31;;;;;;;3.25;2.35;;;;;;;9.55;70.28;102705.16;6239564;28;20284;-73
2021/09/05 00:37:35;;;;;;;3.55;2.28;;;;;;;9.55;69.41;102705.16;6241774;28;20193;-73
2021/09/05 00:40:39;;;;;;;6.28;2.08;;;;;;;9.48;69.66;102706.81;6240807;28;20186;-73
2021/09/05 00:44:02;;;;;;;4.97;2.25;;;;;;;9.49;69.90;102716.72;6241755;28;20297;-73
2021/09/05 00:47:07;;;;;;;6.97;2.60;;;;;;;9.16;72.84;102712.13;6240650;28;20233;-72
2021/09/05 00:50:13;;;;;;;3.90;2.25;;;;;;;9.28;74.12;102708.09;6239867;28;20209;-73
2021/09/05 00:53:18;;;;;;;2.78;2.17;;;;;;;9.31;74.50;102713.22;6240561;28;20224;-72
2021/09/05 00:56:23;;;;;;;3.65;2.05;;;;;;;9.32;73.18;102721.22;6241417;28;20189;-72
2021/09/05 00:59:32;;;;;;;3.10;2.47;;;;;;;9.34;72.00;102724.66;6239214;28;20237;-72
2021/09/05 01:02:40;;;;;;;2.53;2.42;;;;;;;9.34;71.91;102712.91;6239937;28;20202;-72
2021/09/05 01:05:46;;;;;;;3.17;2.35;;;;;;;9.35;71.62;102715.44;6239158;28;20208;-73
2021/09/05 01:08:50;;;;;;;4.55;2.90;;;;;;;9.35;71.20;102709.13;6238667;28;20232;-73
2021/09/05 01:11:55;;;;;;;4.30;2.40;;;;;;;9.32;70.62;102717.66;6238548;28;20202;-73
2021/09/05 01:15:01;;;;;;;3.08;2.70;;;;;;;9.26;71.03;102721.03;6239580;28;20232;-72
2021/09/05 01:18:09;;;;;;;3.83;2.85;;;;;;;9.23;71.61;102721.34;6239449;28;20281;-73
2021/09/05 01:21:28;;;;;;;3.45;2.88;;;;;;;9.19;72.03;102714.53;6239234;28;20209;-73
2021/09/05 01:24:55;;;;;;;6.65;3.05;;;;;;;9.13;72.41;102705.13;6232385;28;20206;-73
2021/09/05 01:28:20;;;;;;;2.55;2.40;;;;;;;9.07;72.27;102715.81;6240434;28;20210;-72
2021/09/05 01:31:25;;;;;;;6.80;2.58;;;;;;;9.08;72.62;102718.38;6240164;28;20193;-73
2021/09/05 01:35:01;;;;;;;2.92;2.80;;;;;;;9.03;72.76;102719.88;6186533;28;20284;-73
2021/09/05 01:38:24;;;;;;;2.75;2.22;;;;;;;8.89;74.34;102734.06;6239053;28;20504;-72
2021/09/05 01:41:54;;;;;;;2.60;2.50;;;;;;;9.04;75.43;102727.06;6239016;28;20237;-73
2021/09/05 01:45:31;;;;;;;3.33;3.10;;;;;;;8.94;74.75;102721.69;6187026;28;20216;-74
2021/09/05 01:48:53;;;;;;;5.55;3.03;;;;;;;9.02;74.93;102718.16;6239555;28;20241;-73
2021/09/05 01:52:17;;;;;;;3.22;3.13;;;;;;;8.98;75.02;102722.25;6238968;28;20224;-73
2021/09/05 01:55:48;;;;;;;11.35;3.28;;;;;;;8.99;75.70;102719.34;6231298;28;20208;-73
2021/09/05 01:59:21;;;;;;;6.85;2.90;;;;;;;8.89;76.01;102724.03;6238637;28;20210;-73
2021/09/05 02:02:51;;;;;;;5.28;2.90;;;;;;;8.78;76.19;102722.44;6239146;28;20207;-73
2021/09/05 02:06:29;;;;;;;2.80;2.65;;;;;;;8.77;75.71;102720.75;6205484;28;20223;-72
2021/09/05 02:09:55;;;;;;;4.05;2.85;;;;;;;8.81;75.49;102716.69;6237871;28;20229;-72
2021/09/05 02:13:20;;;;;;;8.05;3.10;;;;;;;8.76;76.06;102724.47;6208212;28;20208;-73
2021/09/05 02:16:45;;;;;;;3.75;3.45;;;;;;;8.88;76.09;102726.94;6208892;28;20240;-72
2021/09/05 02:20:16;;;;;;;4.07;3.17;;;;;;;8.75;75.75;102717.34;6237872;28;20275;-73
2021/09/05 02:23:41;;;;;;;5.32;3.00;;;;;;;8.78;74.94;102717.00;6237160;28;20244;-72
2021/09/05 02:26:57;;;;;;;2.85;2.65;;;;;;;8.86;73.86;102724.38;6238322;28;20244;-73
2021/09/05 02:30:20;;;;;;;3.25;2.83;;;;;;;8.88;73.90;102726.94;6239284;28;20219;-73
2021/09/05 02:33:42;;;;;;;5.15;3.15;;;;;;;8.79;75.00;102712.41;6237773;28;20312;-73
2021/09/05 02:37:26;;;;;;;3.78;2.67;;;;;;;8.82;74.61;102718.41;6224019;28;20279;-73
2021/09/05 02:40:50;;;;;;;8.32;3.03;;;;;;;8.82;74.41;102717.53;6237270;28;20563;-73
2021/09/05 02:44:13;;;;;;;4.68;2.90;;;;;;;8.63;75.03;102718.59;6237596;28;20448;-72
2021/09/05 02:47:41;;;;;;;5.95;2.75;;;;;;;8.75;74.74;102722.78;6239024;28;20237;-73
2021/09/05 02:51:20;;;;;;;9.93;3.30;;;;;;;8.72;75.01;102734.00;6232444;28;20376;-73
2021/09/05 02:54:49;;;;;;;3.03;2.75;;;;;;;8.78;74.09;102732.50;6210140;28;20291;-72
2021/09/05 02:58:13;;;;;;;3.50;3.20;;;;;;;8.76;74.77;102735.38;6227650;28;20212;-73
2021/09/05 03:01:38;;;;;;;7.72;4.20;;;;;;;8.65;75.27;102741.06;6208202;28;20201;-72
2021/09/05 03:05:02;;;;;;;10.80;3.53;;;;;;;8.67;74.90;102736.34;6237486;28;20208;-73
2021/09/05 03:08:37;;;;;;;6.15;3.05;;;;;;;8.63;73.94;102745.81;6185650;28;20236;-73
2021/09/05 03:12:01;;;;;;;3.17;2.97;;;;;;;8.56;73.41;102761.06;6236699;28;20209;-72
2021/09/05 03:15:23;;;;;;;4.40;3.05;;;;;;;8.49;73.81;102757.28;6236980;28;20436;-73
2021/09/05 03:19:00;;;;;;;2.92;2.83;;;;;;;8.58;72.97;102753.59;6194553;28;20205;-73
2021/09/05 03:22:29;;;;;;;4.70;3.90;;;;;;;8.62;73.28;102760.44;6237032;28;20288;-72
2021/09/05 03:25:49;;;;;;;4.95;4.53;;;;;;;8.58;73.37;102748.16;6236762;28;20209;-73
2021/09/05 03:29:17;;;;;;;6.03;4.78;;;;;;;8.44;73.61;102746.00;6237239;28;20422;-72
2021/09/05 03:32:52;;;;;;;5.50;3.67;;;;;;;8.38;73.89;102754.78;6235889;28;20202;-72
2021/09/05 03:36:17;;;;;;;3.47;3.20;;;;;;;8.38;72.78;102752.06;6226810;28;20209;-72
2021/09/05 03:39:42;;;;;;;6.05;2.90;;;;;;;8.29;72.79;102747.56;6238166;28;20247;-73
2021/09/05 03:43:08;;;;;;;2.85;2.65;;;;;;;8.16;73.17;102753.38;6236899;28;20186;-73
2021/09/05 03:46:36;;;;;;;3.83;2.88;;;;;;;8.15;72.84;102756.22;6235619;28;20225;-73
2021/09/05 03:50:15;;;;;;;3.13;2.92;;;;;;;8.13;72.82;102752.81;6225068;28;20478;-73
2021/09/05 03:53:23;;;;;;;2.95;2.75;;;;;;;8.15;72.90;102761.66;6235986;28;20209;-74
2021/09/05 03:56:30;;;;;;;4.18;2.85;;;;;;;8.12;72.87;102761.97;6236014;28;20208;-73
2021/09/05 03:59:35;;;;;;;3.25;3.00;;;;;;;8.02;73.06;102755.75;6236680;28;20284;-73
2021/09/05 04:02:46;;;;;;;2.85;2.75;;;;;;;8.15;72.84;102750.78;6235675;28;20281;-73
2021/09/05 04:05:54;;;;;;;2.80;2.70;;;;;;;8.12;73.66;102751.09;6236438;28;20186;-74
2021/09/05 04:09:08;;;;;;;3.30;3.08;;;;;;;8.08;73.79;102760.59;6235993;28;20263;-73
2021/09/05 04:12:37;;;;;;;3.75;2.72;;;;;;;8.05;74.16;102756.31;6236733;28;20197;-72
2021/09/05 04:16:04;;;;;;;3.15;2.90;;;;;;;8.26;73.60;102757.88;6236552;28;20211;-72
2021/09/05 04:19:29;;;;;;;2.95;2.65;;;;;;;8.22;74.29;102764.63;6236572;28;20236;-72
2021/09/05 04:22:33;;;;;;;2.95;2.70;;;;;;;8.30;74.06;102760.16;6237707;28;20190;-73
2021/09/05 04:25:42;;;;;;;3.08;2.83;;;;;;;8.25;74.66;102750.72;6237423;28;20190;-72
2021/09/05 04:29:01;;;;;;;3.53;2.97;;;;;;;8.39;74.00;102753.78;6238327;28;20230;-72
2021/09/05 04:32:07;;;;;;;3.05;2.80;;;;;;;8.25;74.58;102762.44;6240644;28;20209;-72
2021/09/05 04:35:12;;;;;;;5.40;2.95;;;;;;;8.34;75.08;102760.69;6241565;28;20225;-72
2021/09/05 04:38:36;;;;;;;2.65;2.45;;;;;;;8.49;74.20;102760.00;6240807;28;20189;-72
2021/09/05 04:41:58;;;;;;;3.20;2.90;;;;;;;8.61;73.95;102757.88;6241422;28;20186;-72
2021/09/05 04:45:05;;;;;;;2.88;2.70;;;;;;;8.63;74.24;102767.56;6241615;28;20261;-71
2021/09/05 04:48:22;;;;;;;4.47;3.10;;;;;;;8.65;74.67;102764.72;6240216;28;20244;-72
2021/09/05 04:51:43;;;;;;;2.33;2.22;;;;;;;8.66;75.11;102772.72;6240147;28;20532;-72
2021/09/05 04:55:08;;;;;;;2.40;2.30;;;;;;;8.75;74.55;102777.22;6240235;28;20197;-73
2021/09/05 04:58:31;;;;;;;3.70;2.63;;;;;;;8.71;74.19;102786.69;6240122;28;20201;-73
2021/09/05 05:01:57;;;;;;;5.72;2.55;;;;;;;8.81;73.51;102790.19;6240053;28;20248;-72
2021/09/05 05:05:02;;;;;;;3.22;3.03;;;;;;;8.90;73.28;102784.81;6240754;28;20192;-73
2021/09/05 05:08:09;;;;;;;2.95;2.67;;;;;;;8.95;73.39;102793.34;6239684;28;20249;-73
2021/09/05 05:11:16;;;;;;;2.58;2.47;;;;;;;9.01;73.82;102779.09;6240268;28;20221;-72
2021/09/05 05:14:20;;;;;;;3.17;2.97;;;;;;;8.86;76.07;102792.41;6241159;28;20197;-74
2021/09/05 05:17:24;;;;;;;3.13;2.90;;;;;;;8.68;76.98;102781.56;6240680;28;20197;-73
2021/09/05 05:20:29;;;;;;;3.13;2.92;;;;;;;8.96;76.22;102778.72;6239324;28;20452;-72
2021/09/05 05:23:34;;;;;;;5.15;2.83;;;;;;;9.02;75.97;102783.50;6240518;28;20190;-73
2021/09/05 05:26:38;;;;;;;2.90;2.70;;;;;;;9.05;76.25;102794.97;6240404;28;20190;-72
2021/09/05 05:29:42;;;;;;;4.95;3.35;;;;;;;9.13;76.18;102785.97;6239349;28;20217;-73
2021/09/05 05:32:47;;;;;;;3.15;2.80;;;;;;;9.27;75.60;102790.84;6240419;28;20229;-74
2021/09/05 05:35:53;;;;;;;4.05;2.90;;;;;;;9.32;75.38;102796.66;6239559;28;20279;-74
2021/09/05 05:38:58;;;;;;;3.33;3.10;;;;;;;9.46;75.05;102782.44;6238827;28;20447;-74
2021/09/05 05:42:02;;;;;;;2.88;2.78;;;;;;;9.42;74.78;102791.97;6239523;28;20197;-74
2021/09/05 05:45:10;;;;;;;2.90;2.60;;;;;;;9.57;74.18;102795.78;6239060;28;20520;-74
2021/09/05 05:48:15;;;;;;;2.67;2.50;;;;;;;9.57;74.12;102795.78;6238643;28;20237;-74
2021/09/05 05:51:20;;;;;;;3.35;2.60;;;;;;;9.55;74.21;102797.81;6239573;28;20220;-73
2021/09/05 05:54:25;;;;;;;2.83;2.72;;;;;;;9.74;73.89;102797.53;6239859;28;20248;-73
2021/09/05 05:57:29;;;;;;;2.70;2.60;;;;;;;9.82;74.29;102794.84;6238623;28;20448;-73
2021/09/05 06:00:35;;;;;;;2.90;2.70;;;;;;;9.89;73.73;102795.88;6238517;28;20189;-73
2021/09/05 06:03:40;;;;;;;6.28;2.72;;;;;;;9.91;73.91;102799.28;6239293;28;20231;-73
2021/09/05 06:06:46;;;;;;;2.72;2.65;;;;;;;9.98;73.13;102794.06;6239074;28;20196;-73
2021/09/05 06:09:52;;;;;;;2.38;2.20;;;;;;;10.07;72.77;102799.34;6238504;28;20272;-73
2021/09/05 06:12:56;;;;;;;2.42;2.33;;;;;;;10.06;73.72;102797.66;6238087;28;20240;-73
2021/09/05 06:16:00;;;;;;;2.42;2.30;;;;;;;10.29;72.75;102808.84;6239458;28;20224;-73
2021/09/05 06:19:04;;;;;;;3.58;2.28;;;;;;;10.41;73.35;102801.16;6237835;28;20381;-73
2021/09/05 06:22:09;;;;;;;2.55;2.35;;;;;;;10.42;72.79;102802.88;6239004;28;20190;-73
2021/09/05 06:25:17;;;;;;;2.08;1.90;;;;;;;10.49;72.97;102814.81;6239333;28;20192;-73
2021/09/05 06:28:22;;;;;;;1.80;1.70;;;;;;;10.60;72.44;102800.84;6238051;28;20532;-72
2021/09/05 06:31:26;;;;;;;2.10;2.00;;;;;;;10.69;72.73;102800.69;6238114;28;20240;-73
2021/09/05 06:34:30;;;;;;;1.73;1.67;;;;;;;10.90;70.21;102796.56;6238750;28;20256;-73
2021/09/05 06:37:34;;;;;;;1.40;1.30;;;;;;;10.91;69.75;102799.16;6237707;28;20246;-73
2021/09/05 06:40:40;;;;;;;3.53;1.17;;;;;;;11.15;67.11;102801.84;6238368;28;20256;-73
2021/09/05 06:43:44;;;;;;;1.30;1.30;;;;;;;11.20;67.12;102804.91;6238775;28;20194;-73
2021/09/05 06:46:48;;;;;;;1.38;1.30;;;;;;;11.35;66.43;102802.28;6237792;28;20304;-74
2021/09/05 06:49:53;;;;;;;2.25;1.50;;;;;;;11.39;66.62;102797.34;6236912;28;20189;-73
2021/09/05 06:52:57;;;;;;;2.50;1.27;;;;;;;11.36;67.24;102792.22;6237298;28;20216;-73
2021/09/05 06:56:03;;;;;;;1.58;1.20;;;;;;;11.40;67.17;102793.59;6237346;28;20439;-75
2021/09/05 06:59:07;;;;;;;1.10;1.10;;;;;;;11.46;66.24;102788.25;6238047;28;20223;-73
2021/09/05 07:02:17;;;;;;;1.08;1.00;;;;;;;11.68;64.79;102792.13;6238590;28;20190;-73
2021/09/05 07:05:21;;;;;;;1.38;1.15;;;;;;;11.59;65.07;102787.69;6238085;28;20189;-74
2021/09/05 07:08:26;;;;;;;1.10;1.10;;;;;;;11.37;65.09;102788.47;6237120;28;20208;-74
2021/09/05 07:11:31;;;;;;;1.10;1.10;;;;;;;11.53;65.74;102782.97;6237068;28;20287;-73
2021/09/05 07:14:35;;;;;;;1.05;1.05;;;;;;;11.74;64.63;102791.44;6238004;28;20192;-73
2021/09/05 07:17:40;;;;;;;0.90;0.90;;;;;;;11.86;63.42;102800.97;6238092;28;20186;-73
2021/09/05 07:20:44;;;;;;;1.20;0.95;;;;;;;11.92;63.42;102790.16;6236972;28;20441;-73
2021/09/05 07:23:48;;;;;;;0.95;0.95;;;;;;;12.04;63.70;102792.50;6237961;28;20193;-73
2021/09/05 07:26:54;;;;;;;1.17;1.17;;;;;;;12.09;62.92;102793.66;6236941;28;20526;-74
2021/09/05 07:29:58;;;;;;;1.02;1.02;;;;;;;12.16;62.62;102797.38;6238122;28;20248;-73
2021/09/05 07:33:02;;;;;;;0.85;0.85;;;;;;;12.24;62.62;102794.59;6237868;28;20277;-74
2021/09/05 07:36:07;;;;;;;1.38;0.90;;;;;;;12.13;64.01;102792.25;6237728;28;20185;-73
2021/09/05 07:39:11;;;;;;;1.60;1.10;;;;;;;12.27;61.89;102791.50;6236788;28;20374;-73
2021/09/05 07:42:17;;;;;;;1.13;1.02;;;;;;;12.39;60.67;102794.66;6238153;28;20189;-73
2021/09/05 07:45:21;;;;;;;1.20;1.10;;;;;;;12.47;60.23;102795.47;6237723;28;20197;-73
2021/09/05 07:48:25;;;;;;;1.00;1.00;;;;;;;12.49;58.71;102798.00;6237256;28;20276;-73
2021/09/05 07:51:31;;;;;;;0.80;0.80;;;;;;;12.57;58.37;102812.50;6236509;28;20438;-73
2021/09/05 07:54:36;;;;;;;0.93;0.93;;;;;;;12.54;59.47;102812.84;6237868;28;20186;-73
2021/09/05 07:57:41;;;;;;;1.10;1.10;;;;;;;12.51;57.65;102807.75;6237787;28;20264;-74
2021/09/05 08:00:45;;;;;;;0.93;0.93;;;;;;;12.37;57.71;102811.28;6237713;28;20212;-73
2021/09/05 08:03:51;;;;;;;0.80;0.80;;;;;;;12.47;57.86;102811.88;6239680;28;20231;-73
2021/09/05 08:06:55;;;;;;;3.50;0.98;;;;;;;12.51;57.94;102813.22;6241521;28;20196;-72
2021/09/05 08:09:59;;;;;;;0.98;0.98;;;;;;;12.46;58.61;102815.66;6241943;28;20249;-72
2021/09/05 08:13:05;;;;;;;1.00;1.00;;;;;;;12.48;58.90;102804.50;6241816;28;20285;-72
2021/09/05 08:16:12;;;;;;;1.00;1.00;;;;;;;12.71;58.19;102804.53;6240677;28;20411;-73
2021/09/05 08:19:17;;;;;;;1.02;1.02;;;;;;;12.73;59.53;102810.66;6240664;28;20225;-73
2021/09/05 08:22:21;;;;;;;0.95;0.95;;;;;;;12.81;58.08;102807.88;6240598;28;20363;-73
2021/09/05 08:25:25;;;;;;;0.95;0.95;;;;;;;12.98;57.29;102821.22;6240617;28;20192;-74
2021/09/05 08:28:32;;;;;;;1.33;1.05;;;;;;;12.87;57.20;102812.59;6241737;28;20253;-73
2021/09/05 08:31:36;;;;;;;1.45;1.35;;;;;;;12.85;56.81;102807.31;6240330;28;20213;-73
2021/09/05 08:34:40;;;;;;;1.10;1.00;;;;;;;12.92;58.34;102805.53;6241131;28;20220;-73
2021/09/05 08:37:44;;;;;;;0.82;0.82;;;;;;;13.10;57.61;102807.94;6241489;28;20224;-73
2021/09/05 08:40:50;;;;;;;0.90;0.90;;;;;;;13.23;55.44;102802.69;6239879;28;20185;-74
2021/09/05 08:43:57;;;;;;;0.90;0.90;;;;;;;13.40;57.16;102809.72;6240034;28;20228;-72
2021/09/05 08:47:02;;;;;;;5.38;1.02;;;;;;;13.44;57.58;102797.31;6240593;28;20230;-74
2021/09/05 08:50:07;;;;;;;1.00;1.00;;;;;;;13.42;56.14;102810.38;6239950;28;20252;-74
2021/09/05 08:53:13;;;;;;;2.08;1.02;;;;;;;13.55;56.60;102807.84;6239738;28;20221;-74
2021/09/05 08:56:18;;;;;;;0.90;0.90;;;;;;;13.58;56.70;102801.13;6240994;28;20186;-73
2021/09/05 08:59:23;;;;;;;1.17;0.88;;;;;;;13.61;55.64;102809.78;6240627;28;20263;-75
2021/09/05 09:02:44;;;;;;;0.98;0.98;;;;;;;13.72;55.34;102803.84;6240629;28;20190;-74
2021/09/05 09:05:52;;;;;;;0.95;0.95;;;;;;;13.69;55.46;102797.88;6239673;28;20232;-74
2021/09/05 09:09:16;;;;;;;0.95;0.95;;;;;;;13.73;56.40;102797.31;6239728;28;20469;-75
2021/09/05 09:12:36;;;;;;;3.30;1.10;;;;;;;13.82;56.35;102798.91;6240947;28;20209;-74
2021/09/05 09:15:41;;;;;;;1.00;1.00;;;;;;;13.91;55.37;102796.06;6240307;28;20201;-74
2021/09/05 09:18:45;;;;;;;1.10;1.10;;;;;;;13.93;54.89;102804.94;6239749;28;20198;-75
2021/09/05 09:21:50;;;;;;;1.00;1.00;;;;;;;13.80;56.39;102795.50;6239315;28;20474;-74
2021/09/05 09:24:54;;;;;;;1.00;1.00;;;;;;;13.92;56.17;102789.53;6239471;28;20235;-74
2021/09/05 09:27:58;;;;;;;1.73;1.20;;;;;;;13.89;54.82;102784.44;6240051;28;20309;-73
2021/09/05 09:31:06;;;;;;;2.67;1.00;;;;;;;13.88;55.20;102796.44;6240064;28;20248;-74
2021/09/05 09:34:21;;;;;;;1.00;1.00;;;;;;;13.84;55.58;102789.66;6240289;28;20317;-73
2021/09/05 09:37:25;;;;;;;1.00;1.00;;;;;;;13.93;56.00;102788.47;6239998;28;20221;-74
2021/09/05 09:40:29;;;;;;;1.00;1.00;;;;;;;13.95;56.60;102791.88;6240188;28;20186;-73
2021/09/05 09:43:33;;;;;;;1.17;1.00;;;;;;;14.05;54.55;102776.81;6240073;28;20189;-73
2021/09/05 09:46:40;;;;;;;0.93;0.93;;;;;;;14.10;53.44;102785.31;6239565;28;20235;-72
2021/09/05 09:49:49;;;;;;;2.08;1.05;;;;;;;14.13;53.72;102778.59;6239839;28;20185;-72
2021/09/05 09:52:56;;;;;;;1.38;0.95;;;;;;;14.19;53.22;102777.81;6238341;28;20217;-72
2021/09/05 09:56:06;;;;;;;0.90;0.90;;;;;;;14.37;53.52;102770.03;6239230;28;20252;-72
2021/09/05 09:59:11;;;;;;;1.05;1.05;;;;;;;14.25;55.01;102760.59;6238372;28;20470;-72
2021/09/05 10:02:26;;;;;;;0.88;0.88;;;;;;;14.41;53.54;102771.31;6239923;28;20253;-73
2021/09/05 10:05:31;;;;;;;0.90;0.90;;;;;;;14.42;54.01;102748.31;6238805;28;20224;-73
2021/09/05 10:08:39;;;;;;;0.85;0.85;;;;;;;14.44;53.90;102740.72;6238631;28;20186;-73
2021/09/05 10:11:44;;;;;;;2.28;1.00;;;;;;;14.56;54.00;102747.38;6239292;28;20216;-73
2021/09/05 10:14:51;;;;;;;1.85;1.00;;;;;;;14.53;54.60;102742.31;6239168;28;20213;-75
2021/09/05 10:17:58;;;;;;;0.93;0.90;;;;;;;14.58;53.01;102739.81;6237821;28;20373;-74
2021/09/05 10:21:02;;;;;;;1.00;1.00;;;;;;;14.71;52.45;102739.09;6238922;28;20265;-74
2021/09/05 10:24:15;;;;;;;1.65;1.13;;;;;;;14.75;52.84;102735.72;6237790;28;20212;-74
2021/09/05 10:27:29;;;;;;;1.08;1.08;;;;;;;14.87;50.91;102723.13;6238283;28;20197;-74
2021/09/05 10:30:36;;;;;;;1.25;1.13;;;;;;;15.03;49.77;102722.84;6237491;28;20212;-73
2021/09/05 10:33:43;;;;;;;3.60;1.00;;;;;;;15.12;51.24;102719.94;6237963;28;20240;-75
2021/09/05 10:36:50;;;;;;;0.90;0.90;;;;;;;15.13;51.57;102721.63;6238172;28;20186;-73
2021/09/05 10:40:08;;;;;;;0.95;0.90;;;;;;;15.14;49.94;102706.84;6238797;28;20264;-73
2021/09/05 10:43:14;;;;;;;1.20;1.20;;;;;;;15.24;50.65;102712.81;6238389;28;20194;-75
2021/09/05 10:46:20;;;;;;;1.00;1.00;;;;;;;15.32;50.06;102720.91;6237202;28;20534;-74
2021/09/05 10:49:39;;;;;;;1.10;1.05;;;;;;;15.43;49.96;102712.09;6238092;28;20255;-75
2021/09/05 10:52:47;;;;;;;0.90;0.90;;;;;;;15.48;50.35;102709.59;6238700;28;20285;-76
2021/09/05 10:56:08;;;;;;;1.00;1.00;;;;;;;15.43;54.67;102706.59;6238506;28;20185;-74
2021/09/05 10:59:16;;;;;;;1.35;1.20;;;;;;;15.54;51.09;102697.75;6238157;28;20228;-73
2021/09/05 11:02:20;;;;;;;0.80;0.80;;;;;;;15.59;48.92;102700.75;6237147;28;20232;-75
2021/09/05 11:05:25;;;;;;;0.82;0.82;;;;;;;15.66;47.16;102696.16;6237184;28;20241;-76
2021/09/05 11:08:31;;;;;;;1.00;1.00;;;;;;;15.61;49.33;102695.91;6236921;28;20384;-75
2021/09/05 11:11:53;;;;;;;1.00;1.00;;;;;;;15.60;48.49;102699.69;6238060;28;20182;-75
2021/09/05 11:14:59;;;;;;;0.98;0.93;;;;;;;15.72;48.10;102695.28;6236905;28;20415;-75
2021/09/05 11:18:04;;;;;;;0.98;0.98;;;;;;;15.62;50.73;102697.59;6237679;28;20196;-76
2021/09/05 11:21:24;;;;;;;0.90;0.90;;;;;;;15.85;49.95;102695.34;6237637;28;20224;-75
2021/09/05 11:24:28;;;;;;;0.90;0.90;;;;;;;15.72;52.82;102684.28;6236564;28;20196;-74
2021/09/05 11:27:38;;;;;;;0.90;0.90;;;;;;;15.89;50.84;102682.88;6237995;28;20272;-75
2021/09/05 11:30:44;;;;;;;2.28;1.00;;;;;;;15.86;51.08;102680.53;6237626;28;20224;-75
2021/09/05 11:33:50;;;;;;;1.05;1.05;;;;;;;15.90;51.31;102681.81;6236555;28;20240;-75
2021/09/05 11:36:59;;;;;;;1.40;1.30;;;;;;;15.98;51.17;102678.88;6237781;28;20192;-74
2021/09/05 11:40:06;;;;;;;1.08;1.08;;;;;;;16.06;50.16;102675.91;6241712;28;20361;-74
2021/09/05 11:43:14;;;;;;;1.73;0.98;;;;;;;16.12;50.71;102677.84;6241660;28;20402;-75
2021/09/05 11:46:20;;;;;;;1.10;1.10;;;;;;;16.13;49.23;102673.16;6242225;28;20260;-73
2021/09/05 11:49:24;;;;;;;1.13;1.13;;;;;;;16.18;48.97;102674.25;6242471;28;20220;-72
2021/09/05 11:52:33;;;;;;;1.88;0.98;;;;;;;16.20;49.66;102672.13;6242637;28;20296;-73
2021/09/05 11:55:38;;;;;;;2.05;1.15;;;;;;;16.21;49.84;102668.31;6242526;28;20214;-76
2021/09/05 11:58:46;;;;;;;2.40;1.08;;;;;;;16.33;49.73;102671.31;6242458;28;20185;-74
2021/09/05 12:01:53;;;;;;;0.98;0.98;;;;;;;16.35;49.00;102668.34;6241905;28;20186;-74
2021/09/05 12:05:02;;;;;;;1.10;1.10;;;;;;;16.26;47.79;102660.28;6241021;28;20564;-74
2021/09/05 12:08:10;;;;;;;0.90;0.90;;;;;;;16.17;49.35;102658.78;6240967;28;20473;-73
2021/09/05 12:11:15;;;;;;;2.90;1.10;;;;;;;16.28;46.81;102654.53;6241753;28;20249;-73
2021/09/05 12:14:27;;;;;;;1.00;1.00;;;;;;;16.34;48.02;102666.63;6242044;28;20321;-74
2021/09/05 12:17:33;;;;;;;7.15;1.23;;;;;;;16.28;42.49;102651.78;6241688;28;20185;-74
2021/09/05 12:20:43;;;;;;;1.10;1.10;;;;;;;16.36;44.69;102642.50;6241959;28;20217;-73
2021/09/05 12:23:49;;;;;;;1.10;1.10;;;;;;;16.45;42.10;102642.06;6241239;28;20252;-73
2021/09/05 12:26:53;;;;;;;1.10;1.10;;;;;;;16.53;39.31;102638.28;6240339;28;20249;-72
2021/09/05 12:30:22;;;;;;;1.00;1.00;;;;;;;16.64;39.18;102629.38;6240969;28;20492;-73
2021/09/05 12:33:33;;;;;;;1.13;1.10;;;;;;;16.57;40.95;102628.50;6241332;28;20197;-72
2021/09/05 12:36:39;;;;;;;1.60;1.08;;;;;;;16.55;41.18;102630.63;6240827;28;20209;-73
2021/09/05 12:39:46;;;;;;;1.20;1.20;;;;;;;16.68;40.97;102622.34;6241456;28;20222;-72
2021/09/05 12:42:51;;;;;;;2.25;1.13;;;;;;;16.71;42.50;102624.69;6240194;28;20437;-72
2021/09/05 12:45:56;;;;;;;0.90;0.90;;;;;;;16.87;40.65;102618.72;6240983;28;20279;-73
2021/09/05 12:49:10;;;;;;;1.20;1.20;;;;;;;16.84;42.11;102627.41;6239109;28;20185;-74
2021/09/05 12:52:24;;;;;;;0.95;0.95;;;;;;;16.87;41.58;102627.00;6241220;28;20186;-73
2021/09/05 12:55:30;;;;;;;1.00;1.00;;;;;;;16.96;39.50;102617.41;6245661;28;20297;-72
2021/09/05 12:58:35;;;;;;;1.17;1.17;;;;;;;17.06;38.20;102623.31;6252081;28;20202;-73
2021/09/05 13:01:40;;;;;;;1.00;1.00;;;;;;;17.07;37.99;102616.75;6250716;28;20254;-73
2021/09/05 13:04:46;;;;;;;1.52;1.10;;;;;;;17.06;39.22;102617.81;6246625;28;20189;-73
2021/09/05 13:07:50;;;;;;;0.98;0.98;;;;;;;17.06;38.93;102609.53;6240919;28;20217;-74
2021/09/05 13:10:55;;;;;;;1.52;1.20;;;;;;;17.09;38.88;102611.84;6239603;28;20541;-75
2021/09/05 13:14:01;;;;;;;0.90;0.90;;;;;;;17.20;39.37;102613.09;6240833;28;20212;-75
2021/09/05 13:17:07;;;;;;;1.00;1.00;;;;;;;17.13;39.37;102602.06;6239490;28;20208;-74
2021/09/05 13:20:13;;;;;;;0.80;0.80;;;;;;;17.08;38.87;102599.13;6240683;28;20228;-74
2021/09/05 13:23:19;;;;;;;1.00;1.00;;;;;;;17.19;39.68;102590.19;6240684;28;20253;-74
2021/09/05 13:26:26;;;;;;;1.00;1.00;;;;;;;17.26;39.13;102591.00;6239787;28;20205;-74
2021/09/05 13:29:31;;;;;;;1.00;1.00;;;;;;;17.25;39.48;102588.47;6240136;28;20185;-76
2021/09/05 13:32:36;;;;;;;1.00;1.00;;;;;;;17.29;38.53;102585.03;6238993;28;20363;-76
2021/09/05 13:35:41;;;;;;;0.98;0.98;;;;;;;17.30;40.22;102581.22;6240056;28;20241;-75
2021/09/05 13:38:45;;;;;;;1.10;1.10;;;;;;;17.20;41.34;102575.34;6239389;28;20199;-75
2021/09/05 13:41:54;;;;;;;1.10;1.10;;;;;;;17.33;40.78;102582.69;6239826;28;20224;-74
2021/09/05 13:44:59;;;;;;;0.90;0.90;;;;;;;17.29;42.48;102565.72;6240258;28;20190;-73
2021/09/05 13:48:04;;;;;;;1.10;1.10;;;;;;;17.31;42.04;102577.38;6238963;28;20449;-75
2021/09/05 13:51:11;;;;;;;1.08;1.08;;;;;;;17.33;43.21;102569.72;6239002;28;20189;-74
2021/09/05 13:54:15;;;;;;;1.13;0.93;;;;;;;17.31;45.48;102569.09;6239058;28;20192;-75
2021/09/05 13:57:24;;;;;;;1.40;1.40;;;;;;;17.27;45.06;102570.63;6239592;28;20271;-76
2021/09/05 14:00:31;;;;;;;0.95;0.95;;;;;;;17.13;45.00;102563.47;6239274;28;20193;-75
2021/09/05 14:03:36;;;;;;;1.00;1.00;;;;;;;17.19;43.90;102568.09;6239256;28;20186;-75
2021/09/05 14:06:41;;;;;;;1.17;1.05;;;;;;;17.30;43.59;102559.16;6238211;28;20196;-74
2021/09/05 14:09:49;;;;;;;2.40;1.13;;;;;;;17.33;43.29;102547.66;6239615;28;20192;-74
2021/09/05 14:12:56;;;;;;;3.90;1.30;;;;;;;17.23;44.64;102541.75;6238659;28;20201;-74
2021/09/05 14:16:03;;;;;;;0.90;0.90;;;;;;;17.20;44.06;102536.72;6239416;28;20213;-74
2021/09/05 14:19:09;;;;;;;0.98;0.98;;;;;;;17.20;44.19;102524.84;6238155;28;20408;-74
2021/09/05 14:22:15;;;;;;;1.10;1.10;;;;;;;17.17;44.72;102531.63;6239027;28;20186;-74
2021/09/05 14:25:20;;;;;;;4.68;1.70;;;;;;;17.32;43.96;102525.81;6239332;28;20221;-74
2021/09/05 14:28:31;;;;;;;1.60;1.13;;;;;;;17.27;44.43;102526.47;6237913;28;20211;-72
2021/09/05 14:31:40;;;;;;;1.27;1.27;;;;;;;17.29;43.83;102524.34;6238288;28;20268;-74
2021/09/05 14:34:55;;;;;;;1.60;1.50;;;;;;;17.19;45.37;102523.97;6238796;28;20218;-76
2021/09/05 14:38:18;;;;;;;3.33;1.00;;;;;;;17.26;44.04;102522.03;6237622;28;20418;-74
2021/09/05 14:48:18;;;;;;;1.00;1.00;;;;;;;17.41;44.23;102514.28;6238034;28;20244;-74
2021/09/05 14:51:41;;;;;;;3.00;1.00;;;;;;;17.38;44.13;102517.47;6237620;28;20186;-73
2021/09/05 14:54:48;;;;;;;1.00;0.90;;;;;;;17.31;46.60;102516.69;6238137;28;20185;-73
2021/09/05 14:57:56;;;;;;;2.38;1.20;;;;;;;17.51;45.52;102511.88;6237542;28;20228;-75